createdAt,value
2022-09-11T00:00:29.618Z,70.31
2022-09-11T00:03:02.668Z,70.30
2022-09-11T00:05:39.367Z,70.09
2022-09-11T00:08:14.284Z,70.40
2022-09-11T00:10:48.776Z,70.29
2022-09-11T00:13:24.471Z,70.17
2022-09-11T00:15:57.395Z,70.42
2022-09-11T00:18:30.868Z,70.09
2022-09-11T00:21:05.566Z,70.32
2022-09-11T00:23:38.477Z,70.12
2022-09-11T00:26:11.852Z,70.12
2022-09-11T00:28:46.973Z,70.21
2022-09-11T00:31:22.066Z,70.42
2022-09-11T00:33:55.249Z,70.30
2022-09-11T00:36:31.572Z,70.73
2022-09-11T00:39:05.483Z,70.57
2022-09-11T00:41:40.355Z,70.66
2022-09-11T00:44:51.061Z,70.36
2022-09-11T00:47:25.261Z,70.53
2022-09-11T00:50:07.859Z,70.63
2022-09-11T00:52:52.846Z,70.49
2022-09-11T00:55:28.637Z,70.63
2022-09-11T00:58:05.497Z,70.74
2022-09-11T01:00:40.595Z,70.56
2022-09-11T01:03:15.035Z,70.45
2022-09-11T01:05:48.411Z,70.66
2022-09-11T01:08:22.761Z,70.56
2022-09-11T01:11:05.940Z,70.00
2022-09-11T01:13:47.210Z,70.03
2022-09-11T01:16:31.565Z,70.38
2022-09-11T01:19:19.487Z,70.05
2022-09-11T01:22:31.493Z,69.85
2022-09-11T01:25:19.453Z,70.13
2022-09-11T01:27:55.842Z,70.11
2022-09-11T01:30:34.614Z,70.23
2022-09-11T01:33:18.595Z,69.78
2022-09-11T01:35:57.841Z,69.83
2022-09-11T01:38:36.428Z,70.14
2022-09-11T01:41:14.331Z,70.22
2022-09-11T01:43:53.195Z,70.07
2022-09-11T01:46:29.075Z,70.18
2022-09-11T01:49:07.832Z,70.62
2022-09-11T01:51:42.233Z,70.35
2022-09-11T01:54:19.813Z,70.16
2022-09-11T01:56:57.835Z,69.94
2022-09-11T01:59:38.137Z,69.92
2022-09-11T02:02:15.239Z,69.85
2022-09-11T02:04:54.733Z,70.21
2022-09-11T02:07:32.749Z,70.24
2022-09-11T02:10:10.923Z,70.26
2022-09-11T02:12:51.360Z,70.64
2022-09-11T02:15:32.705Z,70.73
2022-09-11T02:18:13.164Z,70.68
2022-09-11T02:20:47.668Z,70.79
2022-09-11T02:23:22.927Z,70.78
2022-09-11T02:25:56.291Z,70.97
2022-09-11T02:28:29.587Z,70.81
2022-09-11T02:31:04.463Z,71.17
2022-09-11T02:33:39.065Z,71.46
2022-09-11T02:36:27.232Z,71.16
2022-09-11T02:39:17.078Z,71.79
2022-09-11T02:42:16.548Z,71.72
2022-09-11T02:44:56.009Z,71.51
2022-09-11T02:47:43.506Z,71.48
2022-09-11T02:50:29.716Z,71.52
2022-09-11T02:53:08.926Z,71.97
2022-09-11T02:55:55.836Z,71.55
2022-09-11T02:58:33.549Z,71.41
2022-09-11T03:01:08.838Z,71.67
2022-09-11T03:03:46.619Z,71.43
2022-09-11T03:06:22.136Z,71.43
2022-09-11T03:08:55.819Z,71.36
2022-09-11T03:11:28.989Z,71.49
2022-09-11T03:14:01.830Z,71.49
2022-09-11T03:16:34.699Z,71.36
2022-09-11T03:19:09.707Z,71.15
2022-09-11T03:21:42.957Z,71.27
2022-09-11T03:24:17.217Z,71.38
2022-09-11T03:26:50.409Z,71.08
2022-09-11T03:29:23.330Z,71.28
2022-09-11T03:31:58.920Z,71.04
2022-09-11T03:34:33.823Z,71.07
2022-09-11T03:37:06.607Z,71.06
2022-09-11T03:39:39.487Z,71.13
2022-09-11T03:42:13.091Z,71.05
2022-09-11T03:44:49.130Z,70.88
2022-09-11T03:47:22.321Z,70.79
2022-09-11T03:49:56.889Z,71.05
2022-09-11T03:52:30.515Z,70.84
2022-09-11T03:55:03.426Z,70.81
2022-09-11T03:57:36.610Z,70.72
2022-09-11T04:00:11.356Z,70.48
2022-09-11T04:02:44.136Z,70.55
2022-09-11T04:05:18.463Z,70.64
2022-09-11T04:07:53.266Z,70.83
2022-09-11T04:10:26.202Z,70.41
2022-09-11T04:12:59.338Z,70.53
2022-09-11T04:15:33.017Z,70.50
2022-09-11T04:18:07.265Z,70.51
2022-09-11T04:20:41.532Z,70.47
2022-09-11T04:23:14.289Z,70.57
2022-09-11T04:25:47.652Z,70.71
2022-09-11T04:28:22.458Z,70.87
2022-09-11T04:30:57.290Z,70.79
2022-09-11T04:33:30.058Z,71.06
2022-09-11T04:36:08.030Z,70.40
2022-09-11T04:38:42.100Z,70.75
2022-09-11T04:41:16.270Z,70.77
2022-09-11T04:43:49.256Z,70.54
2022-09-11T04:46:22.095Z,70.60
2022-09-11T04:48:59.429Z,70.76
2022-09-11T04:51:35.683Z,70.86
2022-09-11T04:54:08.886Z,70.98
2022-09-11T04:56:41.718Z,71.19
2022-09-11T04:59:16.598Z,70.76
2022-09-11T05:01:49.774Z,71.21
2022-09-11T05:04:26.170Z,71.31
2022-09-11T05:07:01.141Z,71.39
2022-09-11T05:09:36.330Z,71.40
2022-09-11T05:12:10.767Z,71.57
2022-09-11T05:14:43.535Z,71.70
2022-09-11T05:17:16.404Z,71.82
2022-09-11T05:19:49.424Z,71.80
2022-09-11T05:22:25.135Z,71.57
2022-09-11T05:24:58.409Z,71.62
2022-09-11T05:27:31.378Z,71.90
2022-09-11T05:30:04.263Z,71.61
2022-09-11T05:32:37.200Z,71.71
2022-09-11T05:35:10.436Z,71.82
2022-09-11T05:37:44.655Z,72.06
2022-09-11T05:40:17.720Z,72.15
2022-09-11T05:42:51.185Z,72.12
2022-09-11T05:45:25.102Z,72.04
2022-09-11T05:47:58.107Z,72.45
2022-09-11T05:50:32.844Z,72.37
2022-09-11T05:53:07.049Z,72.42
2022-09-11T05:55:41.031Z,72.54
2022-09-11T05:58:13.939Z,72.51
2022-09-11T06:00:47.713Z,72.45
2022-09-11T06:03:22.187Z,72.38
2022-09-11T06:05:54.963Z,72.43
2022-09-11T06:08:29.727Z,72.30
2022-09-11T06:11:07.176Z,72.54
2022-09-11T06:13:41.813Z,72.78
2022-09-11T06:16:18.521Z,72.76
2022-09-11T06:18:54.783Z,72.28
2022-09-11T06:21:29.248Z,72.41
2022-09-11T06:24:04.259Z,72.16
2022-09-11T06:26:37.314Z,72.25
2022-09-11T06:29:14.571Z,72.25
2022-09-11T06:31:51.307Z,72.23
2022-09-11T06:34:24.271Z,72.29
2022-09-11T06:36:57.132Z,72.24
2022-09-11T06:39:31.521Z,72.26
2022-09-11T06:42:04.619Z,72.29
2022-09-11T06:44:37.395Z,72.22
2022-09-11T06:47:10.220Z,72.24
2022-09-11T06:49:43.013Z,72.13
2022-09-11T06:52:15.823Z,72.05
2022-09-11T06:54:50.582Z,72.20
2022-09-11T06:57:23.495Z,72.06
2022-09-11T06:59:57.809Z,72.04
2022-09-11T07:02:30.607Z,71.81
2022-09-11T07:05:03.789Z,71.69
2022-09-11T07:07:36.589Z,71.44
2022-09-11T07:10:12.440Z,71.21
2022-09-11T07:12:45.258Z,71.48
2022-09-11T07:15:18.343Z,71.37
2022-09-11T07:17:51.370Z,71.32
2022-09-11T07:20:24.396Z,71.01
2022-09-11T07:22:57.807Z,70.37
2022-09-11T07:25:32.018Z,70.50
2022-09-11T07:28:05.137Z,69.80
2022-09-11T07:30:38.019Z,70.11
2022-09-11T07:33:11.020Z,69.90
2022-09-11T07:35:43.829Z,69.74
2022-09-11T07:38:16.607Z,69.56
2022-09-11T07:40:54.448Z,69.08
2022-09-11T07:43:27.474Z,68.98
2022-09-11T07:46:00.346Z,68.24
2022-09-11T07:48:34.235Z,68.22
2022-09-11T07:51:09.377Z,68.07
2022-09-11T07:53:44.292Z,67.46
2022-09-11T07:56:21.114Z,67.05
2022-09-11T07:58:56.032Z,67.04
2022-09-11T08:01:30.513Z,66.94
2022-09-11T08:04:05.568Z,66.41
2022-09-11T08:06:39.645Z,66.42
2022-09-11T08:09:15.629Z,66.49
2022-09-11T08:11:50.052Z,65.84
2022-09-11T08:14:24.766Z,65.82
2022-09-11T08:16:57.915Z,65.46
2022-09-11T08:19:32.096Z,65.52
2022-09-11T08:22:05.458Z,65.37
2022-09-11T08:24:38.472Z,65.67
2022-09-11T08:27:12.922Z,66.24
2022-09-11T08:29:45.898Z,66.86
2022-09-11T08:32:18.745Z,66.79
2022-09-11T08:34:51.564Z,66.76
2022-09-11T08:37:24.430Z,66.50
2022-09-11T08:39:57.304Z,66.21
2022-09-11T08:42:31.854Z,66.17
2022-09-11T08:45:08.504Z,66.11
2022-09-11T08:47:42.975Z,65.63
2022-09-11T08:50:21.235Z,65.19
2022-09-11T08:52:55.017Z,65.26
2022-09-11T08:55:35.116Z,64.81
2022-09-11T08:58:18.876Z,64.51
2022-09-11T09:00:59.035Z,63.78
2022-09-11T09:03:53.775Z,64.58
2022-09-11T09:06:43.879Z,64.00
2022-09-11T09:12:00.621Z,63.91
2022-09-11T09:15:11.996Z,65.26
2022-09-11T09:17:50.240Z,65.17
2022-09-11T09:20:27.304Z,65.21
2022-09-11T09:23:04.866Z,65.49
2022-09-11T09:25:41.236Z,65.21
2022-09-11T09:28:21.896Z,64.84
2022-09-11T09:30:58.099Z,65.71
2022-09-11T09:33:34.660Z,65.91
2022-09-11T09:36:19.352Z,64.53
2022-09-11T09:38:53.742Z,64.38
2022-09-11T09:41:59.188Z,64.12
2022-09-11T09:44:46.325Z,63.83
2022-09-11T09:47:19.627Z,62.60
2022-09-11T09:49:54.879Z,61.08
2022-09-11T09:52:36.238Z,60.59
2022-09-11T09:55:16.663Z,60.30
2022-09-11T09:57:50.434Z,59.15
2022-09-11T10:00:23.438Z,59.47
2022-09-11T10:02:58.271Z,58.83
2022-09-11T10:05:34.870Z,57.35
2022-09-11T10:08:25.425Z,57.23
2022-09-11T10:11:00.174Z,56.88
2022-09-11T10:13:35.058Z,56.41
2022-09-11T10:16:22.229Z,57.28
2022-09-11T10:18:56.985Z,57.29
2022-09-11T10:21:33.597Z,57.41
2022-09-11T10:24:24.036Z,57.22
2022-09-11T10:26:58.094Z,57.58
2022-09-11T10:29:32.134Z,57.15
2022-09-11T10:32:05.804Z,57.05
2022-09-11T10:34:42.029Z,57.02
2022-09-11T10:37:29.925Z,56.12
2022-09-11T10:40:08.255Z,55.77
2022-09-11T10:42:41.567Z,56.53
2022-09-11T10:45:17.761Z,55.98
2022-09-11T10:47:50.622Z,56.30
2022-09-11T10:50:26.900Z,55.37
2022-09-11T10:53:21.410Z,55.91
2022-09-11T10:56:01.788Z,55.36
2022-09-11T10:58:37.634Z,55.79
2022-09-11T11:01:10.672Z,55.34
2022-09-11T11:03:43.619Z,55.03
2022-09-11T11:06:32.651Z,54.60
2022-09-11T11:09:28.961Z,56.13
2022-09-11T11:12:32.056Z,55.39
2022-09-11T11:15:29.507Z,55.09
2022-09-11T11:18:27.858Z,54.54
2022-09-11T11:21:12.896Z,54.35
2022-09-11T11:24:03.964Z,53.76
2022-09-11T11:27:00.645Z,54.13
2022-09-11T11:30:03.540Z,54.33
2022-09-11T11:33:05.161Z,55.09
2022-09-11T11:35:47.108Z,55.32
2022-09-11T11:38:26.003Z,55.22
2022-09-11T11:41:04.474Z,55.85
2022-09-11T11:43:41.908Z,55.65
2022-09-11T11:46:18.150Z,55.69
2022-09-11T11:48:56.485Z,56.06
2022-09-11T11:51:33.631Z,56.39
2022-09-11T11:54:14.679Z,56.48
2022-09-11T11:56:51.842Z,56.52
2022-09-11T11:59:32.129Z,56.84
2022-09-11T12:02:18.758Z,57.17
2022-09-11T12:04:57.868Z,56.31
2022-09-11T12:07:32.633Z,57.11
2022-09-11T12:10:08.567Z,57.22
2022-09-11T12:12:47.783Z,57.13
2022-09-11T12:15:24.054Z,57.89
2022-09-11T12:18:02.672Z,57.55
2022-09-11T12:20:39.251Z,58.28
2022-09-11T12:23:55.905Z,57.80
2022-09-11T12:26:30.530Z,59.02
2022-09-11T12:29:51.730Z,56.67
2022-09-11T12:32:47.508Z,57.39
2022-09-11T12:35:28.760Z,56.02
2022-09-11T12:38:13.264Z,55.56
2022-09-11T12:40:54.267Z,55.23
2022-09-11T12:43:47.609Z,55.22
2022-09-11T12:47:12.653Z,54.89
2022-09-11T12:49:56.084Z,54.86
2022-09-11T12:52:42.868Z,55.24
2022-09-11T12:55:39.822Z,54.64
2022-09-11T12:58:28.692Z,55.46
2022-09-11T13:01:07.124Z,54.71
2022-09-11T13:03:50.347Z,55.30
2022-09-11T13:06:27.533Z,54.91
2022-09-11T13:09:02.452Z,54.73
2022-09-11T13:11:37.834Z,54.70
2022-09-11T13:14:57.021Z,54.97
2022-09-11T13:17:31.992Z,54.83
2022-09-11T13:20:22.648Z,54.93
2022-09-11T13:23:11.708Z,54.75
2022-09-11T13:25:45.100Z,55.20
2022-09-11T13:28:23.304Z,55.04
2022-09-11T13:31:02.100Z,54.75
2022-09-11T13:33:35.356Z,55.11
2022-09-11T13:36:14.211Z,54.23
2022-09-11T13:38:51.865Z,54.53
2022-09-11T13:41:29.802Z,55.14
2022-09-11T13:44:03.573Z,55.44
2022-09-11T13:46:36.536Z,55.24
2022-09-11T13:49:37.339Z,55.06
2022-09-11T13:52:14.025Z,54.62
2022-09-11T13:54:51.927Z,54.46
2022-09-11T13:57:28.314Z,53.86
2022-09-11T14:00:01.334Z,53.77
2022-09-11T14:02:49.546Z,52.80
2022-09-11T14:05:26.266Z,53.77
2022-09-11T14:08:02.402Z,53.47
2022-09-11T14:10:47.051Z,53.50
2022-09-11T14:13:27.693Z,54.21
2022-09-11T14:16:04.428Z,53.97
2022-09-11T14:18:42.295Z,54.47
2022-09-11T14:21:19.195Z,53.50
2022-09-11T14:23:53.730Z,54.27
2022-09-11T14:26:41.456Z,54.42
2022-09-11T14:29:24.728Z,54.65
2022-09-11T14:32:31.208Z,53.67
2022-09-11T14:35:07.621Z,53.59
2022-09-11T14:37:43.997Z,53.53
2022-09-11T14:40:19.471Z,54.28
2022-09-11T14:42:52.440Z,53.68
2022-09-11T14:45:26.574Z,54.01
2022-09-11T14:48:00.722Z,54.23
2022-09-11T14:50:34.987Z,54.28
2022-09-11T14:53:07.789Z,55.24
2022-09-11T14:55:40.754Z,55.17
2022-09-11T14:58:13.558Z,55.04
2022-09-11T15:00:46.518Z,54.85
2022-09-11T15:03:19.502Z,54.96
2022-09-11T15:05:56.503Z,54.66
2022-09-11T15:08:29.424Z,54.78
2022-09-11T15:11:02.287Z,55.06
2022-09-11T15:13:35.536Z,55.04
2022-09-11T15:16:09.506Z,54.65
2022-09-11T15:18:42.356Z,54.98
2022-09-11T15:21:16.607Z,54.75
2022-09-11T15:23:50.091Z,55.12
2022-09-11T15:26:22.986Z,55.02
2022-09-11T15:28:55.959Z,55.35
2022-09-11T15:31:30.511Z,55.40
2022-09-11T15:34:05.845Z,55.89
2022-09-11T15:36:41.619Z,55.63
2022-09-11T15:39:19.350Z,55.27
2022-09-11T15:41:52.191Z,55.50
2022-09-11T15:44:27.121Z,55.53
2022-09-11T15:47:00.243Z,55.66
2022-09-11T15:49:33.112Z,55.79
2022-09-11T15:52:07.629Z,55.32
2022-09-11T15:54:40.586Z,55.87
2022-09-11T15:57:13.470Z,55.78
2022-09-11T15:59:46.251Z,55.58
2022-09-11T16:02:21.708Z,55.59
2022-09-11T16:04:54.525Z,55.58
2022-09-11T16:07:29.032Z,55.58
2022-09-11T16:10:01.878Z,55.87
2022-09-11T16:12:34.815Z,56.53
2022-09-11T16:15:10.537Z,56.23
2022-09-11T16:17:43.390Z,56.58
2022-09-11T16:20:16.360Z,55.70
2022-09-11T16:22:50.857Z,55.56
2022-09-11T16:25:23.722Z,55.87
2022-09-11T16:27:58.643Z,55.71
2022-09-11T16:30:54.455Z,56.13
2022-09-11T16:33:24.411Z,56.58
2022-09-11T16:36:00.170Z,56.60
2022-09-11T16:38:36.941Z,55.96
2022-09-11T16:41:12.724Z,56.50
2022-09-11T16:43:49.729Z,56.29
2022-09-11T16:46:25.216Z,56.46
2022-09-11T16:49:01.635Z,56.67
2022-09-11T16:51:35.441Z,56.78
2022-09-11T16:54:09.750Z,56.66
2022-09-11T16:56:45.878Z,56.95
2022-09-11T16:59:19.914Z,57.13
2022-09-11T17:01:56.852Z,56.98
2022-09-11T17:04:29.682Z,57.21
2022-09-11T17:07:02.586Z,57.21
2022-09-11T17:09:37.123Z,57.37
2022-09-11T17:12:11.596Z,57.65
2022-09-11T17:14:44.993Z,57.56
2022-09-11T17:17:17.815Z,57.87
2022-09-11T17:19:51.412Z,57.90
2022-09-11T17:22:24.309Z,58.04
2022-09-11T17:27:31.482Z,58.33
2022-09-11T17:30:05.152Z,58.58
2022-09-11T17:32:38.759Z,59.13
2022-09-11T17:35:12.356Z,59.39
2022-09-11T17:37:46.061Z,59.61
2022-09-11T17:40:20.659Z,59.76
2022-09-11T17:42:53.486Z,60.15
2022-09-11T17:45:26.433Z,60.60
2022-09-11T17:48:01.190Z,60.66
2022-09-11T17:50:35.574Z,61.09
2022-09-11T17:53:08.386Z,61.26
2022-09-11T17:55:42.715Z,61.37
2022-09-11T17:58:15.571Z,61.60
2022-09-11T18:00:48.469Z,61.82
2022-09-11T18:03:22.821Z,61.99
2022-09-11T18:05:56.250Z,62.02
2022-09-11T18:08:31.299Z,62.14
2022-09-11T18:11:05.780Z,62.25
2022-09-11T18:13:38.610Z,62.46
2022-09-11T18:16:12.591Z,62.52
2022-09-11T18:18:45.417Z,62.54
2022-09-11T18:21:18.501Z,62.49
2022-09-11T18:23:51.453Z,61.96
2022-09-11T18:26:29.688Z,62.14
2022-09-11T18:29:05.231Z,62.05
2022-09-11T18:31:40.582Z,62.22
2022-09-11T18:34:15.365Z,62.37
2022-09-11T18:36:48.893Z,62.17
2022-09-11T18:39:22.643Z,62.43
2022-09-11T18:41:57.097Z,62.29
2022-09-11T18:44:30.183Z,62.48
2022-09-11T18:47:02.972Z,62.92
2022-09-11T18:49:35.853Z,63.44
2022-09-11T18:52:09.935Z,63.85
2022-09-11T18:54:42.722Z,64.15
2022-09-11T18:57:17.262Z,64.37
2022-09-11T18:59:52.355Z,64.62
2022-09-11T19:02:25.141Z,64.80
2022-09-11T19:04:57.881Z,64.84
2022-09-11T19:07:32.479Z,65.32
2022-09-11T19:10:07.404Z,65.40
2022-09-11T19:12:42.062Z,65.61
2022-09-11T19:15:14.911Z,65.77
2022-09-11T19:17:49.545Z,66.15
2022-09-11T19:20:22.474Z,66.21
2022-09-11T19:22:58.668Z,66.76
2022-09-11T19:25:36.155Z,66.95
2022-09-11T19:28:11.991Z,67.28
2022-09-11T19:30:45.021Z,67.05
2022-09-11T19:33:17.941Z,67.28
2022-09-11T19:35:56.467Z,67.62
2022-09-11T19:38:31.028Z,67.53
2022-09-11T19:41:05.564Z,68.02
2022-09-11T19:43:42.399Z,67.96
2022-09-11T19:46:16.887Z,68.07
2022-09-11T19:48:49.905Z,68.24
2022-09-11T19:51:25.177Z,68.46
2022-09-11T19:54:00.491Z,68.58
2022-09-11T19:56:38.471Z,69.17
2022-09-11T19:59:14.290Z,68.86
2022-09-11T20:01:47.413Z,69.30
2022-09-11T20:04:20.254Z,69.02
2022-09-11T20:09:31.529Z,69.84
2022-09-11T20:12:04.968Z,69.53
2022-09-11T20:14:42.836Z,69.71
2022-09-11T20:17:15.896Z,69.70
2022-09-11T20:19:48.681Z,69.91
2022-09-11T20:22:22.144Z,70.20
2022-09-11T20:24:54.997Z,70.23
2022-09-11T20:27:28.962Z,70.21
2022-09-11T20:30:03.629Z,70.11
2022-09-11T20:32:38.906Z,70.17
2022-09-11T20:35:12.263Z,70.35
2022-09-11T20:37:45.045Z,70.12
2022-09-11T20:40:18.060Z,70.15
2022-09-11T20:42:50.852Z,70.69
2022-09-11T20:45:25.374Z,70.43
2022-09-11T20:47:58.261Z,70.75
2022-09-11T20:50:31.372Z,70.67
2022-09-11T20:53:04.197Z,70.66
2022-09-11T20:55:37.244Z,70.82
2022-09-11T20:58:10.439Z,71.11
2022-09-11T21:00:46.026Z,71.31
2022-09-11T21:03:18.799Z,71.07
2022-09-11T21:05:51.913Z,71.25
2022-09-11T21:08:25.739Z,71.41
2022-09-11T21:11:03.132Z,71.50
2022-09-11T21:13:36.829Z,71.55
2022-09-11T21:16:12.985Z,71.35
2022-09-11T21:18:48.234Z,71.31
2022-09-11T21:21:22.302Z,71.53
2022-09-11T21:23:56.071Z,71.45
2022-09-11T21:26:30.083Z,71.61
2022-09-11T21:29:05.512Z,71.41
2022-09-11T21:31:39.716Z,71.78
2022-09-11T21:34:12.613Z,71.67
2022-09-11T21:36:45.523Z,71.88
2022-09-11T21:39:18.282Z,71.93
2022-09-11T21:41:51.174Z,72.15
2022-09-11T21:44:24.227Z,71.98
2022-09-11T21:46:58.590Z,72.21
2022-09-11T21:49:31.420Z,72.49
2022-09-11T21:52:04.276Z,72.44
2022-09-11T21:54:37.137Z,72.47
2022-09-11T21:57:10.029Z,72.60
2022-09-11T21:59:42.775Z,72.65
2022-09-11T22:02:18.007Z,72.48
2022-09-11T22:04:51.392Z,72.54
2022-09-11T22:07:24.401Z,72.58
2022-09-11T22:09:57.237Z,72.56
2022-09-11T22:12:30.117Z,72.71
2022-09-11T22:15:03.378Z,72.71
2022-09-11T22:17:37.624Z,72.73
2022-09-11T22:20:11.566Z,72.83
2022-09-11T22:22:44.792Z,72.87
2022-09-11T22:25:17.680Z,72.93
2022-09-11T22:27:50.490Z,72.86
2022-09-11T22:30:23.860Z,73.21
2022-09-11T22:32:59.852Z,73.10
2022-09-11T22:35:35.617Z,73.15
2022-09-11T22:38:08.485Z,73.21
2022-09-11T22:40:41.352Z,73.07
2022-09-11T22:43:14.200Z,73.07
2022-09-11T22:45:51.090Z,72.85
2022-09-11T22:48:25.743Z,72.83
2022-09-11T22:50:59.468Z,73.05
2022-09-11T22:53:32.729Z,72.93
2022-09-11T22:56:05.622Z,73.22
2022-09-11T22:58:39.381Z,73.33
2022-09-11T23:01:17.571Z,73.45
2022-09-11T23:03:54.515Z,73.31
2022-09-11T23:06:45.291Z,73.33
2022-09-11T23:09:18.403Z,73.36
2022-09-11T23:11:51.555Z,73.12
2022-09-11T23:14:24.751Z,73.47
2022-09-11T23:17:00.017Z,73.47
2022-09-11T23:19:35.374Z,73.44
2022-09-11T23:22:08.177Z,73.50
2022-09-11T23:24:41.195Z,73.23
2022-09-11T23:27:14.072Z,73.63
2022-09-11T23:29:48.517Z,73.51
2022-09-11T23:32:21.673Z,73.53
2022-09-11T23:34:56.055Z,73.66
2022-09-11T23:37:29.015Z,73.83
2022-09-11T23:40:02.327Z,73.75
2022-09-11T23:42:37.514Z,74.00
2022-09-11T23:45:12.775Z,73.92
2022-09-11T23:47:45.565Z,73.82
2022-09-11T23:50:20.756Z,74.08
2022-09-11T23:52:53.520Z,73.57
2022-09-11T23:55:26.393Z,74.00
2022-09-11T23:57:59.373Z,73.67
